sensor_id;sensor_type;location;lat;lon;timestamp;P1;durP1;ratioP1;P2;durP2;ratioP2
14748;SDS011;7466;53.574;9.976;2024-01-30T00:01:14;11.63;;;9.67;;
14748;SDS011;7466;53.574;9.976;2024-01-30T00:03:41;12.10;;;10.60;;
14748;SDS011;7466;53.574;9.976;2024-01-30T00:06:08;12.77;;;9.80;;
14748;SDS011;7466;53.574;9.976;2024-01-30T00:08:35;10.97;;;9.87;;
14748;SDS011;7466;53.574;9.976;2024-01-30T00:11:02;11.23;;;10.13;;
14748;SDS011;7466;53.574;9.976;2024-01-30T00:13:31;11.17;;;9.83;;
14748;SDS011;7466;53.574;9.976;2024-01-30T00:15:57;11.37;;;10.23;;
14748;SDS011;7466;53.574;9.976;2024-01-30T00:18:24;10.53;;;9.53;;
14748;SDS011;7466;53.574;9.976;2024-01-30T00:20:51;11.90;;;10.70;;
14748;SDS011;7466;53.574;9.976;2024-01-30T00:23:18;11.07;;;9.90;;
14748;SDS011;7466;53.574;9.976;2024-01-30T00:25:44;13.03;;;10.67;;
14748;SDS011;7466;53.574;9.976;2024-01-30T00:28:11;11.03;;;10.13;;
14748;SDS011;7466;53.574;9.976;2024-01-30T00:30:39;11.87;;;9.83;;
14748;SDS011;7466;53.574;9.976;2024-01-30T00:33:07;11.27;;;10.17;;
14748;SDS011;7466;53.574;9.976;2024-01-30T00:35:34;10.93;;;9.93;;
14748;SDS011;7466;53.574;9.976;2024-01-30T00:38:01;12.23;;;10.50;;
14748;SDS011;7466;53.574;9.976;2024-01-30T00:40:28;12.07;;;9.73;;
14748;SDS011;7466;53.574;9.976;2024-01-30T00:42:55;9.70;;;8.80;;
14748;SDS011;7466;53.574;9.976;2024-01-30T00:45:22;13.70;;;9.63;;
14748;SDS011;7466;53.574;9.976;2024-01-30T00:47:50;11.37;;;9.17;;
14748;SDS011;7466;53.574;9.976;2024-01-30T00:50:16;9.70;;;8.37;;
14748;SDS011;7466;53.574;9.976;2024-01-30T00:52:43;10.50;;;9.37;;
14748;SDS011;7466;53.574;9.976;2024-01-30T00:55:11;11.07;;;9.13;;
14748;SDS011;7466;53.574;9.976;2024-01-30T00:57:37;10.07;;;8.50;;
14748;SDS011;7466;53.574;9.976;2024-01-30T01:00:05;10.97;;;9.27;;
14748;SDS011;7466;53.574;9.976;2024-01-30T01:02:34;9.67;;;8.63;;
14748;SDS011;7466;53.574;9.976;2024-01-30T01:05:02;9.07;;;8.17;;
14748;SDS011;7466;53.574;9.976;2024-01-30T01:07:29;10.03;;;9.13;;
14748;SDS011;7466;53.574;9.976;2024-01-30T01:09:56;11.73;;;9.23;;
14748;SDS011;7466;53.574;9.976;2024-01-30T01:12:23;10.33;;;8.93;;
14748;SDS011;7466;53.574;9.976;2024-01-30T01:14:50;10.83;;;9.70;;
14748;SDS011;7466;53.574;9.976;2024-01-30T01:17:17;11.40;;;8.47;;
14748;SDS011;7466;53.574;9.976;2024-01-30T01:19:43;11.30;;;9.40;;
14748;SDS011;7466;53.574;9.976;2024-01-30T01:22:11;9.50;;;8.47;;
14748;SDS011;7466;53.574;9.976;2024-01-30T01:24:38;9.57;;;8.57;;
14748;SDS011;7466;53.574;9.976;2024-01-30T01:27:05;11.97;;;9.80;;
14748;SDS011;7466;53.574;9.976;2024-01-30T01:29:33;11.77;;;9.17;;
14748;SDS011;7466;53.574;9.976;2024-01-30T01:32:00;11.53;;;9.40;;
14748;SDS011;7466;53.574;9.976;2024-01-30T01:34:27;12.30;;;8.83;;
14748;SDS011;7466;53.574;9.976;2024-01-30T01:36:53;9.33;;;8.43;;
14748;SDS011;7466;53.574;9.976;2024-01-30T01:39:23;10.57;;;9.60;;
14748;SDS011;7466;53.574;9.976;2024-01-30T01:41:49;12.50;;;8.33;;
14748;SDS011;7466;53.574;9.976;2024-01-30T01:44:17;10.93;;;9.13;;
14748;SDS011;7466;53.574;9.976;2024-01-30T01:46:44;12.37;;;9.00;;
14748;SDS011;7466;53.574;9.976;2024-01-30T01:49:11;10.10;;;8.60;;
14748;SDS011;7466;53.574;9.976;2024-01-30T01:51:38;9.70;;;8.70;;
14748;SDS011;7466;53.574;9.976;2024-01-30T01:54:06;10.27;;;9.13;;
14748;SDS011;7466;53.574;9.976;2024-01-30T01:56:35;9.23;;;8.17;;
14748;SDS011;7466;53.574;9.976;2024-01-30T01:59:04;10.17;;;8.00;;
14748;SDS011;7466;53.574;9.976;2024-01-30T02:01:32;9.10;;;8.20;;
14748;SDS011;7466;53.574;9.976;2024-01-30T02:03:59;9.40;;;8.40;;
14748;SDS011;7466;53.574;9.976;2024-01-30T02:06:26;8.73;;;7.97;;
14748;SDS011;7466;53.574;9.976;2024-01-30T02:08:53;8.77;;;7.90;;
14748;SDS011;7466;53.574;9.976;2024-01-30T02:11:21;8.83;;;8.00;;
14748;SDS011;7466;53.574;9.976;2024-01-30T02:13:50;9.27;;;8.10;;
14748;SDS011;7466;53.574;9.976;2024-01-30T02:16:17;8.93;;;8.03;;
14748;SDS011;7466;53.574;9.976;2024-01-30T02:18:43;9.47;;;8.30;;
14748;SDS011;7466;53.574;9.976;2024-01-30T02:21:14;9.40;;;8.40;;
14748;SDS011;7466;53.574;9.976;2024-01-30T02:23:41;13.90;;;8.43;;
14748;SDS011;7466;53.574;9.976;2024-01-30T02:26:09;10.23;;;7.63;;
14748;SDS011;7466;53.574;9.976;2024-01-30T02:28:37;8.37;;;7.63;;
14748;SDS011;7466;53.574;9.976;2024-01-30T02:31:04;10.60;;;8.10;;
14748;SDS011;7466;53.574;9.976;2024-01-30T02:33:31;10.50;;;8.60;;
14748;SDS011;7466;53.574;9.976;2024-01-30T02:35:58;10.57;;;8.23;;
14748;SDS011;7466;53.574;9.976;2024-01-30T02:38:27;9.17;;;8.30;;
14748;SDS011;7466;53.574;9.976;2024-01-30T02:40:54;8.47;;;7.57;;
14748;SDS011;7466;53.574;9.976;2024-01-30T02:43:24;10.87;;;8.27;;
14748;SDS011;7466;53.574;9.976;2024-01-30T02:45:53;9.20;;;8.30;;
14748;SDS011;7466;53.574;9.976;2024-01-30T02:48:20;8.77;;;7.97;;
14748;SDS011;7466;53.574;9.976;2024-01-30T02:50:47;11.17;;;8.57;;
14748;SDS011;7466;53.574;9.976;2024-01-30T02:53:13;9.63;;;8.17;;
14748;SDS011;7466;53.574;9.976;2024-01-30T02:55:41;9.33;;;8.50;;
14748;SDS011;7466;53.574;9.976;2024-01-30T02:58:08;8.97;;;7.93;;
14748;SDS011;7466;53.574;9.976;2024-01-30T03:00:35;9.40;;;8.40;;
14748;SDS011;7466;53.574;9.976;2024-01-30T03:03:02;8.77;;;7.97;;
14748;SDS011;7466;53.574;9.976;2024-01-30T03:05:29;9.27;;;8.07;;
14748;SDS011;7466;53.574;9.976;2024-01-30T03:07:56;9.43;;;8.30;;
14748;SDS011;7466;53.574;9.976;2024-01-30T03:10:22;9.10;;;8.17;;
14748;SDS011;7466;53.574;9.976;2024-01-30T03:12:50;8.87;;;8.17;;
14748;SDS011;7466;53.574;9.976;2024-01-30T03:15:17;12.37;;;8.13;;
14748;SDS011;7466;53.574;9.976;2024-01-30T03:17:44;9.07;;;8.13;;
14748;SDS011;7466;53.574;9.976;2024-01-30T03:20:11;9.20;;;8.37;;
14748;SDS011;7466;53.574;9.976;2024-01-30T03:22:38;9.33;;;8.47;;
14748;SDS011;7466;53.574;9.976;2024-01-30T03:25:05;11.37;;;8.60;;
14748;SDS011;7466;53.574;9.976;2024-01-30T03:27:32;11.33;;;8.83;;
14748;SDS011;7466;53.574;9.976;2024-01-30T03:30:00;8.97;;;8.17;;
14748;SDS011;7466;53.574;9.976;2024-01-30T03:32:27;11.23;;;9.03;;
14748;SDS011;7466;53.574;9.976;2024-01-30T03:34:54;12.67;;;8.43;;
14748;SDS011;7466;53.574;9.976;2024-01-30T03:37:20;9.53;;;7.93;;
14748;SDS011;7466;53.574;9.976;2024-01-30T03:39:47;9.40;;;8.27;;
14748;SDS011;7466;53.574;9.976;2024-01-30T03:42:14;10.00;;;9.00;;
14748;SDS011;7466;53.574;9.976;2024-01-30T03:44:41;8.93;;;8.13;;
14748;SDS011;7466;53.574;9.976;2024-01-30T03:47:10;10.67;;;8.93;;
14748;SDS011;7466;53.574;9.976;2024-01-30T03:49:36;9.83;;;8.83;;
14748;SDS011;7466;53.574;9.976;2024-01-30T03:52:03;10.20;;;9.20;;
14748;SDS011;7466;53.574;9.976;2024-01-30T03:54:30;11.87;;;10.07;;
14748;SDS011;7466;53.574;9.976;2024-01-30T03:56:57;9.53;;;8.73;;
14748;SDS011;7466;53.574;9.976;2024-01-30T03:59:23;14.17;;;8.77;;
14748;SDS011;7466;53.574;9.976;2024-01-30T04:01:50;9.90;;;8.70;;
14748;SDS011;7466;53.574;9.976;2024-01-30T04:04:18;11.93;;;9.37;;
14748;SDS011;7466;53.574;9.976;2024-01-30T04:06:45;11.50;;;8.97;;
14748;SDS011;7466;53.574;9.976;2024-01-30T04:09:12;9.90;;;9.00;;
14748;SDS011;7466;53.574;9.976;2024-01-30T04:11:39;11.00;;;9.90;;
14748;SDS011;7466;53.574;9.976;2024-01-30T04:14:06;10.07;;;9.20;;
14748;SDS011;7466;53.574;9.976;2024-01-30T04:16:33;10.33;;;9.33;;
14748;SDS011;7466;53.574;9.976;2024-01-30T04:19:02;12.53;;;9.57;;
14748;SDS011;7466;53.574;9.976;2024-01-30T04:21:31;10.27;;;9.17;;
14748;SDS011;7466;53.574;9.976;2024-01-30T04:23:58;10.47;;;9.57;;
14748;SDS011;7466;53.574;9.976;2024-01-30T04:26:25;10.07;;;9.00;;
14748;SDS011;7466;53.574;9.976;2024-01-30T04:28:51;11.43;;;9.57;;
14748;SDS011;7466;53.574;9.976;2024-01-30T04:31:18;11.27;;;10.17;;
14748;SDS011;7466;53.574;9.976;2024-01-30T04:33:45;11.47;;;9.37;;
14748;SDS011;7466;53.574;9.976;2024-01-30T04:36:12;11.83;;;10.10;;
14748;SDS011;7466;53.574;9.976;2024-01-30T04:38:40;11.13;;;10.03;;
14748;SDS011;7466;53.574;9.976;2024-01-30T04:41:09;11.90;;;9.90;;
14748;SDS011;7466;53.574;9.976;2024-01-30T04:43:35;11.83;;;10.63;;
14748;SDS011;7466;53.574;9.976;2024-01-30T04:46:03;11.07;;;9.83;;
14748;SDS011;7466;53.574;9.976;2024-01-30T04:48:30;11.90;;;10.80;;
14748;SDS011;7466;53.574;9.976;2024-01-30T04:50:57;12.13;;;10.77;;
14748;SDS011;7466;53.574;9.976;2024-01-30T04:53:26;12.10;;;10.63;;
14748;SDS011;7466;53.574;9.976;2024-01-30T04:55:54;11.53;;;10.43;;
14748;SDS011;7466;53.574;9.976;2024-01-30T04:58:21;12.57;;;10.70;;
14748;SDS011;7466;53.574;9.976;2024-01-30T05:00:47;12.67;;;10.03;;
14748;SDS011;7466;53.574;9.976;2024-01-30T05:03:16;11.70;;;10.60;;
14748;SDS011;7466;53.574;9.976;2024-01-30T05:05:43;11.80;;;10.57;;
14748;SDS011;7466;53.574;9.976;2024-01-30T05:08:10;11.37;;;10.23;;
14748;SDS011;7466;53.574;9.976;2024-01-30T05:10:37;11.13;;;10.03;;
14748;SDS011;7466;53.574;9.976;2024-01-30T05:13:05;12.00;;;10.40;;
14748;SDS011;7466;53.574;9.976;2024-01-30T05:15:32;12.30;;;10.30;;
14748;SDS011;7466;53.574;9.976;2024-01-30T05:17:58;11.93;;;10.73;;
14748;SDS011;7466;53.574;9.976;2024-01-30T05:20:25;11.93;;;10.73;;
14748;SDS011;7466;53.574;9.976;2024-01-30T05:22:53;13.67;;;10.53;;
14748;SDS011;7466;53.574;9.976;2024-01-30T05:25:19;13.47;;;11.57;;
14748;SDS011;7466;53.574;9.976;2024-01-30T05:27:46;14.37;;;11.17;;
14748;SDS011;7466;53.574;9.976;2024-01-30T05:30:15;14.20;;;11.23;;
14748;SDS011;7466;53.574;9.976;2024-01-30T05:32:43;11.60;;;10.70;;
14748;SDS011;7466;53.574;9.976;2024-01-30T05:35:10;11.27;;;10.07;;
14748;SDS011;7466;53.574;9.976;2024-01-30T05:37:39;12.67;;;11.07;;
14748;SDS011;7466;53.574;9.976;2024-01-30T05:40:06;11.87;;;10.53;;
14748;SDS011;7466;53.574;9.976;2024-01-30T05:42:33;14.20;;;11.53;;
14748;SDS011;7466;53.574;9.976;2024-01-30T05:45:00;12.83;;;11.47;;
14748;SDS011;7466;53.574;9.976;2024-01-30T05:47:29;12.70;;;10.93;;
14748;SDS011;7466;53.574;9.976;2024-01-30T05:49:56;14.10;;;11.77;;
14748;SDS011;7466;53.574;9.976;2024-01-30T05:52:23;13.53;;;12.13;;
14748;SDS011;7466;53.574;9.976;2024-01-30T05:54:50;15.53;;;12.90;;
14748;SDS011;7466;53.574;9.976;2024-01-30T05:57:16;13.80;;;12.30;;
14748;SDS011;7466;53.574;9.976;2024-01-30T05:59:44;16.53;;;11.83;;
14748;SDS011;7466;53.574;9.976;2024-01-30T06:02:12;16.53;;;11.90;;
14748;SDS011;7466;53.574;9.976;2024-01-30T06:04:40;15.67;;;12.27;;
14748;SDS011;7466;53.574;9.976;2024-01-30T06:07:07;14.03;;;12.23;;
14748;SDS011;7466;53.574;9.976;2024-01-30T06:09:35;15.63;;;12.13;;
14748;SDS011;7466;53.574;9.976;2024-01-30T06:12:03;14.10;;;11.87;;
14748;SDS011;7466;53.574;9.976;2024-01-30T06:14:31;16.57;;;12.37;;
14748;SDS011;7466;53.574;9.976;2024-01-30T06:16:59;13.97;;;12.47;;
14748;SDS011;7466;53.574;9.976;2024-01-30T06:19:26;15.77;;;12.23;;
14748;SDS011;7466;53.574;9.976;2024-01-30T06:21:54;13.60;;;12.17;;
14748;SDS011;7466;53.574;9.976;2024-01-30T06:24:23;14.03;;;11.80;;
14748;SDS011;7466;53.574;9.976;2024-01-30T06:26:51;13.20;;;12.00;;
14748;SDS011;7466;53.574;9.976;2024-01-30T06:29:18;14.90;;;11.83;;
14748;SDS011;7466;53.574;9.976;2024-01-30T06:31:45;16.27;;;11.93;;
14748;SDS011;7466;53.574;9.976;2024-01-30T06:34:12;13.37;;;12.07;;
14748;SDS011;7466;53.574;9.976;2024-01-30T06:36:39;14.57;;;12.07;;
14748;SDS011;7466;53.574;9.976;2024-01-30T06:39:07;13.50;;;12.23;;
14748;SDS011;7466;53.574;9.976;2024-01-30T06:41:34;14.57;;;12.50;;
14748;SDS011;7466;53.574;9.976;2024-01-30T06:44:01;14.70;;;12.20;;
14748;SDS011;7466;53.574;9.976;2024-01-30T06:46:31;15.27;;;11.87;;
14748;SDS011;7466;53.574;9.976;2024-01-30T06:48:58;18.90;;;11.57;;
14748;SDS011;7466;53.574;9.976;2024-01-30T06:51:24;21.57;;;13.03;;
14748;SDS011;7466;53.574;9.976;2024-01-30T06:53:51;13.47;;;11.90;;
14748;SDS011;7466;53.574;9.976;2024-01-30T06:56:19;12.60;;;11.23;;
14748;SDS011;7466;53.574;9.976;2024-01-30T06:58:46;14.20;;;12.03;;
14748;SDS011;7466;53.574;9.976;2024-01-30T07:01:13;13.73;;;11.87;;
14748;SDS011;7466;53.574;9.976;2024-01-30T07:03:40;13.90;;;11.83;;
14748;SDS011;7466;53.574;9.976;2024-01-30T07:06:07;12.60;;;11.40;;
14748;SDS011;7466;53.574;9.976;2024-01-30T07:08:35;14.00;;;11.83;;
14748;SDS011;7466;53.574;9.976;2024-01-30T07:11:04;13.93;;;12.40;;
14748;SDS011;7466;53.574;9.976;2024-01-30T07:13:32;20.40;;;13.27;;
14748;SDS011;7466;53.574;9.976;2024-01-30T07:16:00;15.93;;;12.37;;
14748;SDS011;7466;53.574;9.976;2024-01-30T07:18:27;16.50;;;12.23;;
14748;SDS011;7466;53.574;9.976;2024-01-30T07:20:53;17.17;;;12.97;;
14748;SDS011;7466;53.574;9.976;2024-01-30T07:23:20;18.03;;;13.07;;
14748;SDS011;7466;53.574;9.976;2024-01-30T07:25:47;17.30;;;12.90;;
14748;SDS011;7466;53.574;9.976;2024-01-30T07:28:14;21.90;;;12.83;;
14748;SDS011;7466;53.574;9.976;2024-01-30T07:30:44;15.83;;;12.50;;
14748;SDS011;7466;53.574;9.976;2024-01-30T07:33:11;14.70;;;12.67;;
14748;SDS011;7466;53.574;9.976;2024-01-30T07:35:38;17.77;;;13.03;;
14748;SDS011;7466;53.574;9.976;2024-01-30T07:38:04;16.77;;;13.60;;
14748;SDS011;7466;53.574;9.976;2024-01-30T07:40:31;15.83;;;12.90;;
14748;SDS011;7466;53.574;9.976;2024-01-30T07:42:58;17.03;;;12.73;;
14748;SDS011;7466;53.574;9.976;2024-01-30T07:45:27;14.37;;;12.87;;
14748;SDS011;7466;53.574;9.976;2024-01-30T07:47:59;17.07;;;12.83;;
14748;SDS011;7466;53.574;9.976;2024-01-30T07:50:27;15.47;;;12.63;;
14748;SDS011;7466;53.574;9.976;2024-01-30T07:52:55;19.60;;;12.43;;
14748;SDS011;7466;53.574;9.976;2024-01-30T07:58:36;16.93;;;13.03;;
14748;SDS011;7466;53.574;9.976;2024-01-30T08:01:03;21.37;;;12.90;;
14748;SDS011;7466;53.574;9.976;2024-01-30T08:03:32;14.13;;;12.47;;
14748;SDS011;7466;53.574;9.976;2024-01-30T08:05:59;16.93;;;13.17;;
14748;SDS011;7466;53.574;9.976;2024-01-30T08:08:27;16.60;;;13.17;;
14748;SDS011;7466;53.574;9.976;2024-01-30T08:10:54;18.83;;;13.20;;
14748;SDS011;7466;53.574;9.976;2024-01-30T08:13:20;16.90;;;13.13;;
14748;SDS011;7466;53.574;9.976;2024-01-30T08:15:47;15.80;;;12.80;;
14748;SDS011;7466;53.574;9.976;2024-01-30T08:18:14;16.30;;;12.67;;
14748;SDS011;7466;53.574;9.976;2024-01-30T08:20:42;14.13;;;12.27;;
14748;SDS011;7466;53.574;9.976;2024-01-30T08:23:10;17.63;;;13.47;;
14748;SDS011;7466;53.574;9.976;2024-01-30T08:25:40;15.83;;;12.77;;
14748;SDS011;7466;53.574;9.976;2024-01-30T08:28:07;18.60;;;12.73;;
14748;SDS011;7466;53.574;9.976;2024-01-30T08:30:34;15.80;;;12.80;;
14748;SDS011;7466;53.574;9.976;2024-01-30T08:33:02;21.40;;;14.20;;
14748;SDS011;7466;53.574;9.976;2024-01-30T08:35:29;16.37;;;12.77;;
14748;SDS011;7466;53.574;9.976;2024-01-30T08:37:59;15.47;;;12.90;;
14748;SDS011;7466;53.574;9.976;2024-01-30T08:40:26;13.37;;;12.03;;
14748;SDS011;7466;53.574;9.976;2024-01-30T08:42:55;17.83;;;13.60;;
14748;SDS011;7466;53.574;9.976;2024-01-30T08:45:24;16.43;;;12.93;;
14748;SDS011;7466;53.574;9.976;2024-01-30T08:47:53;14.47;;;12.83;;
14748;SDS011;7466;53.574;9.976;2024-01-30T08:50:20;17.57;;;13.27;;
14748;SDS011;7466;53.574;9.976;2024-01-30T08:52:46;18.80;;;13.77;;
14748;SDS011;7466;53.574;9.976;2024-01-30T08:55:17;16.70;;;13.53;;
14748;SDS011;7466;53.574;9.976;2024-01-30T08:57:46;17.97;;;13.30;;
14748;SDS011;7466;53.574;9.976;2024-01-30T09:00:14;19.13;;;14.17;;
14748;SDS011;7466;53.574;9.976;2024-01-30T09:02:41;18.37;;;12.27;;
14748;SDS011;7466;53.574;9.976;2024-01-30T09:05:08;15.77;;;12.80;;
14748;SDS011;7466;53.574;9.976;2024-01-30T09:07:36;18.03;;;12.73;;
14748;SDS011;7466;53.574;9.976;2024-01-30T09:10:03;18.07;;;13.50;;
14748;SDS011;7466;53.574;9.976;2024-01-30T09:12:36;16.87;;;12.57;;
14748;SDS011;7466;53.574;9.976;2024-01-30T09:15:04;16.47;;;13.10;;
14748;SDS011;7466;53.574;9.976;2024-01-30T09:17:32;14.87;;;12.17;;
14748;SDS011;7466;53.574;9.976;2024-01-30T09:19:59;17.57;;;12.73;;
14748;SDS011;7466;53.574;9.976;2024-01-30T09:22:28;18.07;;;12.93;;
14748;SDS011;7466;53.574;9.976;2024-01-30T09:24:55;16.63;;;12.83;;
14748;SDS011;7466;53.574;9.976;2024-01-30T09:27:23;18.30;;;13.40;;
14748;SDS011;7466;53.574;9.976;2024-01-30T09:29:51;17.13;;;13.47;;
14748;SDS011;7466;53.574;9.976;2024-01-30T09:32:18;14.17;;;12.40;;
14748;SDS011;7466;53.574;9.976;2024-01-30T09:34:44;16.33;;;13.50;;
14748;SDS011;7466;53.574;9.976;2024-01-30T09:37:11;16.90;;;12.90;;
14748;SDS011;7466;53.574;9.976;2024-01-30T09:39:40;15.37;;;13.00;;
14748;SDS011;7466;53.574;9.976;2024-01-30T09:42:09;19.20;;;12.73;;
14748;SDS011;7466;53.574;9.976;2024-01-30T09:44:48;18.03;;;12.87;;
14748;SDS011;7466;53.574;9.976;2024-01-30T09:47:21;13.57;;;12.17;;
14748;SDS011;7466;53.574;9.976;2024-01-30T09:49:48;14.67;;;12.53;;
14748;SDS011;7466;53.574;9.976;2024-01-30T09:52:18;16.30;;;12.63;;
14748;SDS011;7466;53.574;9.976;2024-01-30T09:54:44;13.93;;;12.43;;
14748;SDS011;7466;53.574;9.976;2024-01-30T09:57:16;14.30;;;12.63;;
14748;SDS011;7466;53.574;9.976;2024-01-30T09:59:55;14.27;;;12.80;;
14748;SDS011;7466;53.574;9.976;2024-01-30T10:02:25;18.30;;;12.93;;
14748;SDS011;7466;53.574;9.976;2024-01-30T10:04:52;15.80;;;12.40;;
14748;SDS011;7466;53.574;9.976;2024-01-30T10:07:19;19.53;;;12.57;;
14748;SDS011;7466;53.574;9.976;2024-01-30T10:09:47;15.27;;;12.83;;
14748;SDS011;7466;53.574;9.976;2024-01-30T10:12:14;16.03;;;12.60;;
14748;SDS011;7466;53.574;9.976;2024-01-30T10:14:41;16.37;;;12.10;;
14748;SDS011;7466;53.574;9.976;2024-01-30T10:17:11;17.20;;;12.87;;
14748;SDS011;7466;53.574;9.976;2024-01-30T10:19:38;17.80;;;13.50;;
14748;SDS011;7466;53.574;9.976;2024-01-30T10:22:06;18.83;;;12.70;;
14748;SDS011;7466;53.574;9.976;2024-01-30T10:24:33;19.93;;;12.50;;
14748;SDS011;7466;53.574;9.976;2024-01-30T10:27:00;14.47;;;12.43;;
14748;SDS011;7466;53.574;9.976;2024-01-30T10:29:27;23.23;;;13.07;;
14748;SDS011;7466;53.574;9.976;2024-01-30T10:31:58;15.67;;;12.30;;
14748;SDS011;7466;53.574;9.976;2024-01-30T10:34:27;18.43;;;12.63;;
14748;SDS011;7466;53.574;9.976;2024-01-30T10:36:59;14.03;;;12.07;;
14748;SDS011;7466;53.574;9.976;2024-01-30T10:39:31;17.43;;;12.60;;
14748;SDS011;7466;53.574;9.976;2024-01-30T10:42:03;16.43;;;12.37;;
14748;SDS011;7466;53.574;9.976;2024-01-30T10:44:34;16.33;;;13.10;;
14748;SDS011;7466;53.574;9.976;2024-01-30T10:47:08;17.97;;;12.00;;
14748;SDS011;7466;53.574;9.976;2024-01-30T10:49:40;17.60;;;11.60;;
14748;SDS011;7466;53.574;9.976;2024-01-30T10:52:09;16.40;;;12.27;;
14748;SDS011;7466;53.574;9.976;2024-01-30T10:54:38;13.60;;;12.20;;
14748;SDS011;7466;53.574;9.976;2024-01-30T10:57:10;19.90;;;12.97;;
14748;SDS011;7466;53.574;9.976;2024-01-30T10:59:40;13.90;;;12.10;;
14748;SDS011;7466;53.574;9.976;2024-01-30T11:02:08;20.73;;;12.60;;
14748;SDS011;7466;53.574;9.976;2024-01-30T11:04:38;17.33;;;12.60;;
14748;SDS011;7466;53.574;9.976;2024-01-30T11:07:15;17.43;;;11.77;;
14748;SDS011;7466;53.574;9.976;2024-01-30T11:09:48;47.03;;;13.50;;
14748;SDS011;7466;53.574;9.976;2024-01-30T11:12:16;19.53;;;12.67;;
14748;SDS011;7466;53.574;9.976;2024-01-30T11:14:44;19.13;;;12.63;;
14748;SDS011;7466;53.574;9.976;2024-01-30T11:17:12;20.20;;;12.20;;
14748;SDS011;7466;53.574;9.976;2024-01-30T11:19:39;17.53;;;12.47;;
14748;SDS011;7466;53.574;9.976;2024-01-30T11:22:10;16.40;;;12.07;;
14748;SDS011;7466;53.574;9.976;2024-01-30T11:24:39;18.40;;;12.63;;
14748;SDS011;7466;53.574;9.976;2024-01-30T11:27:08;16.23;;;12.93;;
14748;SDS011;7466;53.574;9.976;2024-01-30T11:29:43;14.23;;;12.63;;
14748;SDS011;7466;53.574;9.976;2024-01-30T11:32:22;19.37;;;11.77;;
14748;SDS011;7466;53.574;9.976;2024-01-30T11:34:50;19.07;;;11.73;;
14748;SDS011;7466;53.574;9.976;2024-01-30T11:37:17;13.57;;;12.17;;
14748;SDS011;7466;53.574;9.976;2024-01-30T11:39:48;21.63;;;12.77;;
14748;SDS011;7466;53.574;9.976;2024-01-30T11:42:17;16.03;;;12.40;;
14748;SDS011;7466;53.574;9.976;2024-01-30T11:44:49;16.13;;;12.47;;
14748;SDS011;7466;53.574;9.976;2024-01-30T11:47:16;16.13;;;12.50;;
14748;SDS011;7466;53.574;9.976;2024-01-30T11:49:43;19.57;;;12.83;;
14748;SDS011;7466;53.574;9.976;2024-01-30T11:52:11;14.80;;;12.47;;
14748;SDS011;7466;53.574;9.976;2024-01-30T11:54:39;18.83;;;12.93;;
14748;SDS011;7466;53.574;9.976;2024-01-30T11:57:06;16.20;;;11.87;;
14748;SDS011;7466;53.574;9.976;2024-01-30T11:59:33;17.17;;;12.87;;
14748;SDS011;7466;53.574;9.976;2024-01-30T12:02:00;18.17;;;12.73;;
14748;SDS011;7466;53.574;9.976;2024-01-30T12:04:28;14.60;;;12.47;;
14748;SDS011;7466;53.574;9.976;2024-01-30T12:06:55;14.53;;;12.47;;
14748;SDS011;7466;53.574;9.976;2024-01-30T12:09:24;16.63;;;11.77;;
14748;SDS011;7466;53.574;9.976;2024-01-30T12:11:52;18.43;;;12.47;;
14748;SDS011;7466;53.574;9.976;2024-01-30T12:14:19;14.50;;;12.60;;
14748;SDS011;7466;53.574;9.976;2024-01-30T12:16:51;14.07;;;12.27;;
14748;SDS011;7466;53.574;9.976;2024-01-30T12:19:21;16.07;;;12.67;;
14748;SDS011;7466;53.574;9.976;2024-01-30T12:21:53;16.27;;;11.40;;
14748;SDS011;7466;53.574;9.976;2024-01-30T12:24:21;18.03;;;13.13;;
14748;SDS011;7466;53.574;9.976;2024-01-30T12:26:49;17.27;;;14.70;;
14748;SDS011;7466;53.574;9.976;2024-01-30T12:29:17;17.73;;;13.93;;
14748;SDS011;7466;53.574;9.976;2024-01-30T12:31:43;15.27;;;13.23;;
14748;SDS011;7466;53.574;9.976;2024-01-30T12:34:13;18.70;;;12.47;;
14748;SDS011;7466;53.574;9.976;2024-01-30T12:36:40;16.20;;;10.73;;
14748;SDS011;7466;53.574;9.976;2024-01-30T12:39:10;13.10;;;10.90;;
14748;SDS011;7466;53.574;9.976;2024-01-30T12:41:37;12.13;;;10.93;;
14748;SDS011;7466;53.574;9.976;2024-01-30T12:44:06;12.03;;;10.77;;
14748;SDS011;7466;53.574;9.976;2024-01-30T12:46:34;13.50;;;11.47;;
14748;SDS011;7466;53.574;9.976;2024-01-30T12:49:00;13.77;;;11.40;;
14748;SDS011;7466;53.574;9.976;2024-01-30T12:51:28;13.97;;;11.37;;
14748;SDS011;7466;53.574;9.976;2024-01-30T12:53:54;13.13;;;11.03;;
14748;SDS011;7466;53.574;9.976;2024-01-30T12:56:22;11.43;;;10.13;;
14748;SDS011;7466;53.574;9.976;2024-01-30T12:58:48;12.70;;;11.13;;
14748;SDS011;7466;53.574;9.976;2024-01-30T13:01:17;13.43;;;11.17;;
14748;SDS011;7466;53.574;9.976;2024-01-30T13:03:45;11.97;;;10.77;;
14748;SDS011;7466;53.574;9.976;2024-01-30T13:06:13;14.63;;;11.37;;
14748;SDS011;7466;53.574;9.976;2024-01-30T13:08:40;15.27;;;11.17;;
14748;SDS011;7466;53.574;9.976;2024-01-30T13:11:08;12.10;;;10.90;;
14748;SDS011;7466;53.574;9.976;2024-01-30T13:13:37;16.20;;;11.00;;
14748;SDS011;7466;53.574;9.976;2024-01-30T13:16:04;12.93;;;10.40;;
14748;SDS011;7466;53.574;9.976;2024-01-30T13:18:33;13.77;;;10.77;;
14748;SDS011;7466;53.574;9.976;2024-01-30T13:21:00;12.70;;;11.20;;
14748;SDS011;7466;53.574;9.976;2024-01-30T13:23:30;13.23;;;11.17;;
14748;SDS011;7466;53.574;9.976;2024-01-30T13:25:57;14.93;;;11.53;;
14748;SDS011;7466;53.574;9.976;2024-01-30T13:28:24;15.00;;;11.40;;
14748;SDS011;7466;53.574;9.976;2024-01-30T13:30:51;12.67;;;10.60;;
14748;SDS011;7466;53.574;9.976;2024-01-30T13:33:18;14.87;;;11.97;;
14748;SDS011;7466;53.574;9.976;2024-01-30T13:35:46;12.57;;;11.23;;
14748;SDS011;7466;53.574;9.976;2024-01-30T13:38:13;13.40;;;11.30;;
14748;SDS011;7466;53.574;9.976;2024-01-30T13:40:41;12.63;;;11.07;;
14748;SDS011;7466;53.574;9.976;2024-01-30T13:43:08;12.43;;;10.93;;
14748;SDS011;7466;53.574;9.976;2024-01-30T13:45:35;15.20;;;11.13;;
14748;SDS011;7466;53.574;9.976;2024-01-30T13:48:02;17.50;;;11.77;;
14748;SDS011;7466;53.574;9.976;2024-01-30T13:50:29;16.80;;;11.33;;
14748;SDS011;7466;53.574;9.976;2024-01-30T13:52:59;17.97;;;12.37;;
14748;SDS011;7466;53.574;9.976;2024-01-30T13:55:26;15.93;;;11.77;;
14748;SDS011;7466;53.574;9.976;2024-01-30T13:57:53;16.70;;;11.90;;
14748;SDS011;7466;53.574;9.976;2024-01-30T14:00:20;16.30;;;12.27;;
14748;SDS011;7466;53.574;9.976;2024-01-30T14:02:48;15.07;;;11.20;;
14748;SDS011;7466;53.574;9.976;2024-01-30T14:05:15;14.10;;;11.47;;
14748;SDS011;7466;53.574;9.976;2024-01-30T14:07:42;15.53;;;11.40;;
14748;SDS011;7466;53.574;9.976;2024-01-30T14:10:11;14.00;;;11.20;;
14748;SDS011;7466;53.574;9.976;2024-01-30T14:12:38;17.40;;;11.50;;
14748;SDS011;7466;53.574;9.976;2024-01-30T14:15:07;14.03;;;11.83;;
14748;SDS011;7466;53.574;9.976;2024-01-30T14:17:35;16.37;;;11.80;;
14748;SDS011;7466;53.574;9.976;2024-01-30T14:20:02;20.50;;;13.13;;
14748;SDS011;7466;53.574;9.976;2024-01-30T14:22:31;13.43;;;12.03;;
14748;SDS011;7466;53.574;9.976;2024-01-30T14:24:58;13.40;;;11.87;;
14748;SDS011;7466;53.574;9.976;2024-01-30T14:27:27;13.77;;;10.83;;
14748;SDS011;7466;53.574;9.976;2024-01-30T14:29:53;12.63;;;11.23;;
14748;SDS011;7466;53.574;9.976;2024-01-30T14:32:21;13.73;;;11.20;;
14748;SDS011;7466;53.574;9.976;2024-01-30T14:34:48;16.83;;;12.07;;
14748;SDS011;7466;53.574;9.976;2024-01-30T14:37:15;15.37;;;11.77;;
14748;SDS011;7466;53.574;9.976;2024-01-30T14:39:42;14.43;;;12.13;;
14748;SDS011;7466;53.574;9.976;2024-01-30T14:42:10;14.33;;;11.30;;
14748;SDS011;7466;53.574;9.976;2024-01-30T14:44:41;17.13;;;11.73;;
14748;SDS011;7466;53.574;9.976;2024-01-30T14:47:08;17.40;;;11.67;;